sensor_id;sensor_type;location;lat;lon;timestamp;P1;durP1;ratioP1;P2;durP2;ratioP2
29500;SDS011;16450;50.288;10.966;2022-09-09T00:02:47;4.30;;;2.10;;
29500;SDS011;16450;50.288;10.966;2022-09-09T00:06:16;3.77;;;2.00;;
29500;SDS011;16450;50.288;10.966;2022-09-09T00:09:26;2.57;;;1.70;;
29500;SDS011;16450;50.288;10.966;2022-09-09T00:12:34;4.20;;;1.87;;
29500;SDS011;16450;50.288;10.966;2022-09-09T00:15:41;2.87;;;2.03;;
29500;SDS011;16450;50.288;10.966;2022-09-09T00:19:01;3.53;;;2.33;;
29500;SDS011;16450;50.288;10.966;2022-09-09T00:22:17;2.07;;;1.87;;
29500;SDS011;16450;50.288;10.966;2022-09-09T00:25:28;2.60;;;1.87;;
29500;SDS011;16450;50.288;10.966;2022-09-09T00:28:43;3.90;;;2.13;;
29500;SDS011;16450;50.288;10.966;2022-09-09T00:31:50;2.80;;;1.80;;
29500;SDS011;16450;50.288;10.966;2022-09-09T00:35:03;5.27;;;2.40;;
29500;SDS011;16450;50.288;10.966;2022-09-09T00:38:28;2.63;;;1.80;;
29500;SDS011;16450;50.288;10.966;2022-09-09T00:44:58;3.80;;;2.00;;
29500;SDS011;16450;50.288;10.966;2022-09-09T00:48:26;3.80;;;1.90;;
29500;SDS011;16450;50.288;10.966;2022-09-09T00:55:25;4.07;;;2.13;;
29500;SDS011;16450;50.288;10.966;2022-09-09T00:58:42;4.33;;;2.00;;
29500;SDS011;16450;50.288;10.966;2022-09-09T01:01:56;4.37;;;2.17;;
29500;SDS011;16450;50.288;10.966;2022-09-09T01:04:59;3.63;;;2.00;;
29500;SDS011;16450;50.288;10.966;2022-09-09T01:08:18;4.07;;;2.20;;
29500;SDS011;16450;50.288;10.966;2022-09-09T01:15:11;2.60;;;2.03;;
29500;SDS011;16450;50.288;10.966;2022-09-09T01:18:17;3.60;;;2.10;;
29500;SDS011;16450;50.288;10.966;2022-09-09T01:21:25;3.77;;;1.97;;
29500;SDS011;16450;50.288;10.966;2022-09-09T01:28:21;3.00;;;1.90;;
29500;SDS011;16450;50.288;10.966;2022-09-09T01:31:27;5.23;;;2.03;;
29500;SDS011;16450;50.288;10.966;2022-09-09T01:34:36;6.37;;;2.03;;
29500;SDS011;16450;50.288;10.966;2022-09-09T01:37:40;5.90;;;2.20;;
29500;SDS011;16450;50.288;10.966;2022-09-09T01:40:41;3.80;;;1.83;;
29500;SDS011;16450;50.288;10.966;2022-09-09T01:43:41;3.33;;;1.87;;
29500;SDS011;16450;50.288;10.966;2022-09-09T01:46:42;4.47;;;2.10;;
29500;SDS011;16450;50.288;10.966;2022-09-09T01:49:43;3.73;;;2.00;;
29500;SDS011;16450;50.288;10.966;2022-09-09T01:52:44;3.27;;;1.77;;
29500;SDS011;16450;50.288;10.966;2022-09-09T02:02:17;3.80;;;2.00;;
29500;SDS011;16450;50.288;10.966;2022-09-09T02:08:47;3.50;;;2.10;;
29500;SDS011;16450;50.288;10.966;2022-09-09T02:11:52;3.10;;;1.90;;
29500;SDS011;16450;50.288;10.966;2022-09-09T02:15:07;3.50;;;1.97;;
29500;SDS011;16450;50.288;10.966;2022-09-09T02:18:18;2.33;;;1.90;;
29500;SDS011;16450;50.288;10.966;2022-09-09T02:21:25;3.83;;;2.13;;
29500;SDS011;16450;50.288;10.966;2022-09-09T02:24:34;2.80;;;2.00;;
29500;SDS011;16450;50.288;10.966;2022-09-09T02:27:37;3.30;;;1.90;;
29500;SDS011;16450;50.288;10.966;2022-09-09T02:30:38;3.73;;;1.97;;
29500;SDS011;16450;50.288;10.966;2022-09-09T02:33:42;3.37;;;1.90;;
29500;SDS011;16450;50.288;10.966;2022-09-09T02:36:46;3.40;;;2.03;;
29500;SDS011;16450;50.288;10.966;2022-09-09T02:39:49;3.40;;;1.57;;
29500;SDS011;16450;50.288;10.966;2022-09-09T02:42:50;3.57;;;1.90;;
29500;SDS011;16450;50.288;10.966;2022-09-09T02:55:14;3.27;;;1.97;;
29500;SDS011;16450;50.288;10.966;2022-09-09T02:58:17;4.47;;;1.93;;
29500;SDS011;16450;50.288;10.966;2022-09-09T03:01:19;3.50;;;2.00;;
29500;SDS011;16450;50.288;10.966;2022-09-09T03:04:20;4.33;;;2.03;;
29500;SDS011;16450;50.288;10.966;2022-09-09T03:07:21;3.70;;;1.77;;
29500;SDS011;16450;50.288;10.966;2022-09-09T03:10:22;4.17;;;2.10;;
29500;SDS011;16450;50.288;10.966;2022-09-09T03:13:23;4.40;;;2.07;;
29500;SDS011;16450;50.288;10.966;2022-09-09T03:16:25;3.90;;;1.97;;
29500;SDS011;16450;50.288;10.966;2022-09-09T03:19:26;3.57;;;2.10;;
29500;SDS011;16450;50.288;10.966;2022-09-09T03:22:27;4.57;;;2.10;;
29500;SDS011;16450;50.288;10.966;2022-09-09T03:25:28;2.80;;;1.93;;
29500;SDS011;16450;50.288;10.966;2022-09-09T03:28:29;3.40;;;2.10;;
29500;SDS011;16450;50.288;10.966;2022-09-09T03:31:33;4.33;;;1.97;;
29500;SDS011;16450;50.288;10.966;2022-09-09T03:34:35;1.93;;;1.80;;
29500;SDS011;16450;50.288;10.966;2022-09-09T03:37:39;3.43;;;2.00;;
29500;SDS011;16450;50.288;10.966;2022-09-09T03:40:39;2.60;;;1.90;;
29500;SDS011;16450;50.288;10.966;2022-09-09T03:43:48;3.70;;;2.50;;
29500;SDS011;16450;50.288;10.966;2022-09-09T03:46:50;4.33;;;1.93;;
29500;SDS011;16450;50.288;10.966;2022-09-09T03:49:51;3.73;;;2.13;;
29500;SDS011;16450;50.288;10.966;2022-09-09T03:52:51;5.40;;;2.00;;
29500;SDS011;16450;50.288;10.966;2022-09-09T03:55:53;2.90;;;2.03;;
29500;SDS011;16450;50.288;10.966;2022-09-09T03:58:55;3.27;;;2.10;;
29500;SDS011;16450;50.288;10.966;2022-09-09T04:01:56;4.53;;;2.10;;
29500;SDS011;16450;50.288;10.966;2022-09-09T04:04:59;5.00;;;2.10;;
29500;SDS011;16450;50.288;10.966;2022-09-09T04:08:01;5.83;;;2.20;;
29500;SDS011;16450;50.288;10.966;2022-09-09T04:11:02;5.13;;;2.33;;
29500;SDS011;16450;50.288;10.966;2022-09-09T04:14:06;2.03;;;1.80;;
29500;SDS011;16450;50.288;10.966;2022-09-09T04:17:07;4.10;;;2.10;;
29500;SDS011;16450;50.288;10.966;2022-09-09T04:20:09;2.13;;;1.80;;
29500;SDS011;16450;50.288;10.966;2022-09-09T04:23:12;3.90;;;2.20;;
29500;SDS011;16450;50.288;10.966;2022-09-09T04:26:13;5.67;;;2.50;;
29500;SDS011;16450;50.288;10.966;2022-09-09T04:29:14;3.03;;;1.83;;
29500;SDS011;16450;50.288;10.966;2022-09-09T04:32:14;3.43;;;2.00;;
29500;SDS011;16450;50.288;10.966;2022-09-09T04:35:15;5.43;;;2.00;;
29500;SDS011;16450;50.288;10.966;2022-09-09T04:38:16;3.67;;;1.80;;
29500;SDS011;16450;50.288;10.966;2022-09-09T04:41:17;2.93;;;2.00;;
29500;SDS011;16450;50.288;10.966;2022-09-09T04:44:17;3.83;;;2.30;;
29500;SDS011;16450;50.288;10.966;2022-09-09T04:47:18;2.67;;;2.00;;
29500;SDS011;16450;50.288;10.966;2022-09-09T04:50:18;3.80;;;2.00;;
29500;SDS011;16450;50.288;10.966;2022-09-09T04:53:19;3.80;;;1.80;;
29500;SDS011;16450;50.288;10.966;2022-09-09T04:56:20;5.70;;;2.20;;
29500;SDS011;16450;50.288;10.966;2022-09-09T04:59:21;5.80;;;2.00;;
29500;SDS011;16450;50.288;10.966;2022-09-09T05:02:22;3.67;;;1.87;;
29500;SDS011;16450;50.288;10.966;2022-09-09T05:05:22;5.80;;;2.30;;
29500;SDS011;16450;50.288;10.966;2022-09-09T05:08:23;5.10;;;1.90;;
29500;SDS011;16450;50.288;10.966;2022-09-09T05:11:25;4.87;;;2.10;;
29500;SDS011;16450;50.288;10.966;2022-09-09T05:14:27;2.77;;;1.70;;
29500;SDS011;16450;50.288;10.966;2022-09-09T05:17:27;4.37;;;2.13;;
29500;SDS011;16450;50.288;10.966;2022-09-09T05:20:28;4.90;;;2.10;;
29500;SDS011;16450;50.288;10.966;2022-09-09T05:23:29;4.60;;;2.10;;
29500;SDS011;16450;50.288;10.966;2022-09-09T05:26:30;4.80;;;2.10;;
29500;SDS011;16450;50.288;10.966;2022-09-09T05:29:31;4.83;;;2.33;;
29500;SDS011;16450;50.288;10.966;2022-09-09T05:32:35;2.40;;;1.90;;
29500;SDS011;16450;50.288;10.966;2022-09-09T05:35:36;3.57;;;2.03;;
29500;SDS011;16450;50.288;10.966;2022-09-09T05:38:38;5.17;;;2.10;;
29500;SDS011;16450;50.288;10.966;2022-09-09T05:41:39;7.80;;;2.40;;
29500;SDS011;16450;50.288;10.966;2022-09-09T05:44:39;2.90;;;1.80;;
29500;SDS011;16450;50.288;10.966;2022-09-09T05:47:42;3.77;;;1.97;;
29500;SDS011;16450;50.288;10.966;2022-09-09T05:50:42;4.80;;;2.30;;
29500;SDS011;16450;50.288;10.966;2022-09-09T05:53:45;2.63;;;2.07;;
29500;SDS011;16450;50.288;10.966;2022-09-09T05:56:46;7.90;;;2.27;;
29500;SDS011;16450;50.288;10.966;2022-09-09T05:59:46;4.47;;;2.00;;
29500;SDS011;16450;50.288;10.966;2022-09-09T06:02:50;5.00;;;1.70;;
29500;SDS011;16450;50.288;10.966;2022-09-09T06:05:59;4.50;;;1.93;;
29500;SDS011;16450;50.288;10.966;2022-09-09T06:09:00;5.37;;;1.90;;
29500;SDS011;16450;50.288;10.966;2022-09-09T06:12:01;4.67;;;1.90;;
29500;SDS011;16450;50.288;10.966;2022-09-09T06:15:02;5.97;;;1.77;;
29500;SDS011;16450;50.288;10.966;2022-09-09T06:18:03;4.10;;;2.13;;
29500;SDS011;16450;50.288;10.966;2022-09-09T06:21:05;5.97;;;2.17;;
29500;SDS011;16450;50.288;10.966;2022-09-09T06:24:07;3.37;;;1.90;;
29500;SDS011;16450;50.288;10.966;2022-09-09T06:27:08;4.60;;;2.00;;
29500;SDS011;16450;50.288;10.966;2022-09-09T06:30:08;3.17;;;1.90;;
29500;SDS011;16450;50.288;10.966;2022-09-09T06:33:10;4.03;;;1.90;;
29500;SDS011;16450;50.288;10.966;2022-09-09T06:36:11;5.93;;;2.10;;
29500;SDS011;16450;50.288;10.966;2022-09-09T06:39:14;4.77;;;1.93;;
29500;SDS011;16450;50.288;10.966;2022-09-09T06:42:15;4.80;;;2.00;;
29500;SDS011;16450;50.288;10.966;2022-09-09T06:45:16;4.23;;;2.00;;
29500;SDS011;16450;50.288;10.966;2022-09-09T06:48:17;2.47;;;1.73;;
29500;SDS011;16450;50.288;10.966;2022-09-09T06:51:18;3.40;;;1.87;;
29500;SDS011;16450;50.288;10.966;2022-09-09T06:54:24;2.87;;;1.73;;
29500;SDS011;16450;50.288;10.966;2022-09-09T06:57:25;4.03;;;2.30;;
29500;SDS011;16450;50.288;10.966;2022-09-09T07:00:25;3.40;;;1.90;;
29500;SDS011;16450;50.288;10.966;2022-09-09T07:03:26;5.20;;;2.03;;
29500;SDS011;16450;50.288;10.966;2022-09-09T07:06:31;4.20;;;2.00;;
29500;SDS011;16450;50.288;10.966;2022-09-09T07:09:33;4.30;;;2.27;;
29500;SDS011;16450;50.288;10.966;2022-09-09T07:12:33;7.83;;;2.27;;
29500;SDS011;16450;50.288;10.966;2022-09-09T07:15:34;4.40;;;2.20;;
29500;SDS011;16450;50.288;10.966;2022-09-09T07:18:35;3.33;;;1.70;;
29500;SDS011;16450;50.288;10.966;2022-09-09T07:21:35;3.33;;;1.80;;
29500;SDS011;16450;50.288;10.966;2022-09-09T07:24:36;3.20;;;1.70;;
29500;SDS011;16450;50.288;10.966;2022-09-09T07:27:37;4.60;;;1.70;;
29500;SDS011;16450;50.288;10.966;2022-09-09T07:30:38;2.63;;;1.53;;
29500;SDS011;16450;50.288;10.966;2022-09-09T07:33:39;2.27;;;1.40;;
29500;SDS011;16450;50.288;10.966;2022-09-09T07:36:40;3.20;;;1.77;;
29500;SDS011;16450;50.288;10.966;2022-09-09T07:39:43;3.83;;;1.40;;
29500;SDS011;16450;50.288;10.966;2022-09-09T07:42:44;3.93;;;1.70;;
29500;SDS011;16450;50.288;10.966;2022-09-09T07:45:45;3.10;;;1.60;;
29500;SDS011;16450;50.288;10.966;2022-09-09T07:48:46;2.47;;;1.37;;
29500;SDS011;16450;50.288;10.966;2022-09-09T07:51:53;4.03;;;1.53;;
29500;SDS011;16450;50.288;10.966;2022-09-09T07:54:53;4.80;;;1.40;;
29500;SDS011;16450;50.288;10.966;2022-09-09T07:57:55;4.07;;;1.60;;
29500;SDS011;16450;50.288;10.966;2022-09-09T08:00:56;4.97;;;1.70;;
29500;SDS011;16450;50.288;10.966;2022-09-09T08:04:04;5.27;;;1.50;;
29500;SDS011;16450;50.288;10.966;2022-09-09T08:07:25;3.37;;;1.37;;
29500;SDS011;16450;50.288;10.966;2022-09-09T08:10:26;4.40;;;1.50;;
29500;SDS011;16450;50.288;10.966;2022-09-09T08:13:26;3.27;;;1.20;;
29500;SDS011;16450;50.288;10.966;2022-09-09T08:16:28;3.03;;;1.33;;
29500;SDS011;16450;50.288;10.966;2022-09-09T08:19:31;2.33;;;1.50;;
29500;SDS011;16450;50.288;10.966;2022-09-09T08:22:35;2.77;;;1.33;;
29500;SDS011;16450;50.288;10.966;2022-09-09T08:25:37;6.23;;;1.70;;
29500;SDS011;16450;50.288;10.966;2022-09-09T08:28:38;2.30;;;1.20;;
29500;SDS011;16450;50.288;10.966;2022-09-09T08:31:40;2.93;;;1.30;;
29500;SDS011;16450;50.288;10.966;2022-09-09T08:34:43;4.13;;;1.40;;
29500;SDS011;16450;50.288;10.966;2022-09-09T08:37:44;3.73;;;1.20;;
29500;SDS011;16450;50.288;10.966;2022-09-09T08:40:45;4.23;;;1.20;;
29500;SDS011;16450;50.288;10.966;2022-09-09T08:43:50;5.10;;;1.30;;
29500;SDS011;16450;50.288;10.966;2022-09-09T08:47:04;4.37;;;1.27;;
29500;SDS011;16450;50.288;10.966;2022-09-09T08:53:30;2.60;;;1.30;;
29500;SDS011;16450;50.288;10.966;2022-09-09T08:56:38;3.27;;;1.13;;
29500;SDS011;16450;50.288;10.966;2022-09-09T08:59:39;3.93;;;1.43;;
29500;SDS011;16450;50.288;10.966;2022-09-09T09:02:56;3.13;;;1.10;;
29500;SDS011;16450;50.288;10.966;2022-09-09T09:12:29;5.32;;;0.85;;
29500;SDS011;16450;50.288;10.966;2022-09-09T09:15:39;2.47;;;0.80;;
29500;SDS011;16450;50.288;10.966;2022-09-09T09:18:42;3.30;;;1.00;;
29500;SDS011;16450;50.288;10.966;2022-09-09T09:28:17;2.00;;;0.90;;
29500;SDS011;16450;50.288;10.966;2022-09-09T09:31:23;2.58;;;1.00;;
29500;SDS011;16450;50.288;10.966;2022-09-09T09:34:25;3.08;;;0.80;;
29500;SDS011;16450;50.288;10.966;2022-09-09T09:37:30;3.50;;;1.10;;
29500;SDS011;16450;50.288;10.966;2022-09-09T09:40:34;1.98;;;0.75;;
29500;SDS011;16450;50.288;10.966;2022-09-09T09:43:36;3.80;;;1.00;;
29500;SDS011;16450;50.288;10.966;2022-09-09T09:46:40;4.00;;;1.15;;
29500;SDS011;16450;50.288;10.966;2022-09-09T09:49:59;3.47;;;1.00;;
29500;SDS011;16450;50.288;10.966;2022-09-09T09:53:02;2.45;;;1.00;;
29500;SDS011;16450;50.288;10.966;2022-09-09T09:56:08;4.47;;;1.00;;
29500;SDS011;16450;50.288;10.966;2022-09-09T10:02:39;1.37;;;0.80;;
29500;SDS011;16450;50.288;10.966;2022-09-09T10:05:45;2.93;;;0.97;;
29500;SDS011;16450;50.288;10.966;2022-09-09T10:08:46;4.27;;;1.20;;
29500;SDS011;16450;50.288;10.966;2022-09-09T10:11:51;2.77;;;1.03;;
29500;SDS011;16450;50.288;10.966;2022-09-09T10:19:05;3.73;;;1.10;;
29500;SDS011;16450;50.288;10.966;2022-09-09T10:22:25;2.35;;;0.90;;
29500;SDS011;16450;50.288;10.966;2022-09-09T10:25:36;2.55;;;0.80;;
29500;SDS011;16450;50.288;10.966;2022-09-09T10:35:52;5.18;;;0.95;;
29500;SDS011;16450;50.288;10.966;2022-09-09T10:39:01;5.38;;;0.98;;
29500;SDS011;16450;50.288;10.966;2022-09-09T10:42:28;2.33;;;0.80;;
29500;SDS011;16450;50.288;10.966;2022-09-09T10:45:41;1.85;;;0.70;;
29500;SDS011;16450;50.288;10.966;2022-09-09T10:55:44;5.55;;;0.88;;
29500;SDS011;16450;50.288;10.966;2022-09-09T10:59:15;5.38;;;0.90;;
29500;SDS011;16450;50.288;10.966;2022-09-09T11:08:46;5.53;;;0.65;;
29500;SDS011;16450;50.288;10.966;2022-09-09T11:11:56;2.45;;;0.88;;
29500;SDS011;16450;50.288;10.966;2022-09-09T11:15:05;2.85;;;0.80;;
29500;SDS011;16450;50.288;10.966;2022-09-09T11:18:19;3.92;;;0.80;;
29500;SDS011;16450;50.288;10.966;2022-09-09T11:21:26;2.72;;;0.75;;
29500;SDS011;16450;50.288;10.966;2022-09-09T11:24:39;4.88;;;0.95;;
29500;SDS011;16450;50.288;10.966;2022-09-09T11:27:50;3.78;;;0.80;;
29500;SDS011;16450;50.288;10.966;2022-09-09T11:43:59;3.43;;;0.70;;
29500;SDS011;16450;50.288;10.966;2022-09-09T11:47:00;4.00;;;1.10;;
29500;SDS011;16450;50.288;10.966;2022-09-09T11:50:22;1.80;;;0.70;;
29500;SDS011;16450;50.288;10.966;2022-09-09T11:53:30;2.97;;;1.00;;
29500;SDS011;16450;50.288;10.966;2022-09-09T11:56:42;2.57;;;1.07;;
29500;SDS011;16450;50.288;10.966;2022-09-09T11:59:50;6.00;;;0.77;;
29500;SDS011;16450;50.288;10.966;2022-09-09T12:02:55;2.13;;;0.80;;
29500;SDS011;16450;50.288;10.966;2022-09-09T12:05:55;2.90;;;0.73;;
29500;SDS011;16450;50.288;10.966;2022-09-09T12:08:58;4.07;;;1.00;;
29500;SDS011;16450;50.288;10.966;2022-09-09T12:15:17;2.83;;;0.70;;
29500;SDS011;16450;50.288;10.966;2022-09-09T12:18:24;3.63;;;0.73;;
29500;SDS011;16450;50.288;10.966;2022-09-09T12:24:48;1.83;;;0.80;;
29500;SDS011;16450;50.288;10.966;2022-09-09T12:34:34;2.97;;;0.80;;
29500;SDS011;16450;50.288;10.966;2022-09-09T12:37:49;2.43;;;1.07;;
29500;SDS011;16450;50.288;10.966;2022-09-09T12:40:57;4.83;;;0.87;;
29500;SDS011;16450;50.288;10.966;2022-09-09T12:44:03;4.97;;;1.20;;
29500;SDS011;16450;50.288;10.966;2022-09-09T12:47:06;2.77;;;0.73;;
29500;SDS011;16450;50.288;10.966;2022-09-09T12:50:20;3.97;;;0.70;;
29500;SDS011;16450;50.288;10.966;2022-09-09T12:53:27;1.33;;;0.70;;
29500;SDS011;16450;50.288;10.966;2022-09-09T12:56:32;3.73;;;0.70;;
29500;SDS011;16450;50.288;10.966;2022-09-09T12:59:37;2.07;;;0.60;;
29500;SDS011;16450;50.288;10.966;2022-09-09T13:02:47;2.73;;;0.67;;
29500;SDS011;16450;50.288;10.966;2022-09-09T13:05:50;1.77;;;0.60;;
29500;SDS011;16450;50.288;10.966;2022-09-09T13:08:53;3.30;;;0.77;;
29500;SDS011;16450;50.288;10.966;2022-09-09T13:11:55;2.77;;;0.57;;
29500;SDS011;16450;50.288;10.966;2022-09-09T13:14:58;3.37;;;0.70;;
29500;SDS011;16450;50.288;10.966;2022-09-09T13:17:59;2.80;;;0.67;;
29500;SDS011;16450;50.288;10.966;2022-09-09T13:21:11;2.67;;;0.50;;
29500;SDS011;16450;50.288;10.966;2022-09-09T13:24:26;3.30;;;0.67;;
29500;SDS011;16450;50.288;10.966;2022-09-09T13:27:35;1.17;;;0.47;;
29500;SDS011;16450;50.288;10.966;2022-09-09T13:30:38;2.43;;;1.00;;
29500;SDS011;16450;50.288;10.966;2022-09-09T13:33:44;1.33;;;0.40;;
29500;SDS011;16450;50.288;10.966;2022-09-09T13:36:46;1.40;;;0.53;;
29500;SDS011;16450;50.288;10.966;2022-09-09T13:39:52;1.20;;;0.50;;
29500;SDS011;16450;50.288;10.966;2022-09-09T13:42:55;1.55;;;0.50;;
29500;SDS011;16450;50.288;10.966;2022-09-09T13:46:01;0.63;;;0.45;;
29500;SDS011;16450;50.288;10.966;2022-09-09T13:52:09;1.00;;;0.30;;
29500;SDS011;16450;50.288;10.966;2022-09-09T13:55:11;3.13;;;0.50;;
29500;SDS011;16450;50.288;10.966;2022-09-09T13:58:16;4.10;;;0.70;;
29500;SDS011;16450;50.288;10.966;2022-09-09T14:01:19;1.85;;;0.60;;
29500;SDS011;16450;50.288;10.966;2022-09-09T14:04:19;2.08;;;0.55;;
29500;SDS011;16450;50.288;10.966;2022-09-09T14:07:23;2.40;;;0.40;;
29500;SDS011;16450;50.288;10.966;2022-09-09T14:10:25;2.40;;;0.40;;
29500;SDS011;16450;50.288;10.966;2022-09-09T14:13:26;3.47;;;0.60;;
29500;SDS011;16450;50.288;10.966;2022-09-09T14:16:26;4.75;;;0.60;;
29500;SDS011;16450;50.288;10.966;2022-09-09T14:19:27;2.08;;;0.45;;
29500;SDS011;16450;50.288;10.966;2022-09-09T14:22:28;1.07;;;0.30;;
29500;SDS011;16450;50.288;10.966;2022-09-09T14:25:28;2.33;;;0.60;;
29500;SDS011;16450;50.288;10.966;2022-09-09T14:28:29;2.70;;;0.70;;
29500;SDS011;16450;50.288;10.966;2022-09-09T14:31:30;0.95;;;0.40;;
29500;SDS011;16450;50.288;10.966;2022-09-09T14:34:30;0.90;;;0.40;;
29500;SDS011;16450;50.288;10.966;2022-09-09T14:37:32;2.55;;;0.63;;
29500;SDS011;16450;50.288;10.966;2022-09-09T14:40:34;2.63;;;0.60;;
29500;SDS011;16450;50.288;10.966;2022-09-09T14:43:37;2.53;;;0.75;;
29500;SDS011;16450;50.288;10.966;2022-09-09T14:46:38;1.83;;;0.52;;
29500;SDS011;16450;50.288;10.966;2022-09-09T14:49:39;0.63;;;0.43;;
29500;SDS011;16450;50.288;10.966;2022-09-09T14:52:39;2.65;;;0.40;;
29500;SDS011;16450;50.288;10.966;2022-09-09T14:55:40;2.60;;;0.50;;
29500;SDS011;16450;50.288;10.966;2022-09-09T14:58:40;1.25;;;0.60;;
29500;SDS011;16450;50.288;10.966;2022-09-09T15:01:41;2.25;;;0.50;;
29500;SDS011;16450;50.288;10.966;2022-09-09T15:04:42;1.17;;;0.37;;
29500;SDS011;16450;50.288;10.966;2022-09-09T15:07:44;2.78;;;0.57;;
29500;SDS011;16450;50.288;10.966;2022-09-09T15:10:45;1.15;;;0.32;;
29500;SDS011;16450;50.288;10.966;2022-09-09T15:13:47;1.90;;;0.40;;
29500;SDS011;16450;50.288;10.966;2022-09-09T15:16:52;1.03;;;0.40;;
29500;SDS011;16450;50.288;10.966;2022-09-09T15:19:52;3.22;;;0.60;;
29500;SDS011;16450;50.288;10.966;2022-09-09T15:22:54;1.58;;;0.40;;
29500;SDS011;16450;50.288;10.966;2022-09-09T15:25:56;1.27;;;0.40;;
29500;SDS011;16450;50.288;10.966;2022-09-09T15:28:57;1.80;;;0.50;;
29500;SDS011;16450;50.288;10.966;2022-09-09T15:31:59;2.53;;;0.60;;
29500;SDS011;16450;50.288;10.966;2022-09-09T15:34:59;2.20;;;0.70;;
29500;SDS011;16450;50.288;10.966;2022-09-09T15:38:02;1.23;;;0.30;;
29500;SDS011;16450;50.288;10.966;2022-09-09T15:41:04;1.87;;;0.30;;
29500;SDS011;16450;50.288;10.966;2022-09-09T15:44:05;1.63;;;0.50;;
29500;SDS011;16450;50.288;10.966;2022-09-09T15:47:07;1.23;;;0.70;;
29500;SDS011;16450;50.288;10.966;2022-09-09T15:50:10;2.37;;;0.90;;
29500;SDS011;16450;50.288;10.966;2022-09-09T15:53:10;2.60;;;0.60;;
29500;SDS011;16450;50.288;10.966;2022-09-09T15:56:11;0.87;;;0.50;;
29500;SDS011;16450;50.288;10.966;2022-09-09T15:59:12;2.87;;;0.53;;
29500;SDS011;16450;50.288;10.966;2022-09-09T16:02:13;1.33;;;0.43;;
29500;SDS011;16450;50.288;10.966;2022-09-09T16:05:14;2.23;;;0.73;;
29500;SDS011;16450;50.288;10.966;2022-09-09T16:08:14;2.40;;;0.77;;
29500;SDS011;16450;50.288;10.966;2022-09-09T16:11:16;1.33;;;0.60;;
29500;SDS011;16450;50.288;10.966;2022-09-09T16:14:35;2.37;;;0.50;;
29500;SDS011;16450;50.288;10.966;2022-09-09T16:17:35;1.57;;;0.70;;
29500;SDS011;16450;50.288;10.966;2022-09-09T16:20:37;5.37;;;0.80;;
29500;SDS011;16450;50.288;10.966;2022-09-09T16:23:41;2.77;;;0.93;;
29500;SDS011;16450;50.288;10.966;2022-09-09T16:26:42;2.10;;;0.83;;
29500;SDS011;16450;50.288;10.966;2022-09-09T16:29:45;2.00;;;0.80;;
29500;SDS011;16450;50.288;10.966;2022-09-09T16:32:46;4.27;;;0.80;;
29500;SDS011;16450;50.288;10.966;2022-09-09T16:35:47;3.43;;;0.80;;
29500;SDS011;16450;50.288;10.966;2022-09-09T16:38:53;1.43;;;0.60;;
29500;SDS011;16450;50.288;10.966;2022-09-09T16:41:57;3.70;;;0.70;;
29500;SDS011;16450;50.288;10.966;2022-09-09T16:44:59;2.30;;;0.53;;
29500;SDS011;16450;50.288;10.966;2022-09-09T16:48:00;1.03;;;0.40;;
29500;SDS011;16450;50.288;10.966;2022-09-09T16:51:04;1.27;;;0.50;;
29500;SDS011;16450;50.288;10.966;2022-09-09T16:54:07;1.17;;;0.33;;
29500;SDS011;16450;50.288;10.966;2022-09-09T16:57:09;2.30;;;0.80;;
29500;SDS011;16450;50.288;10.966;2022-09-09T17:00:10;4.70;;;0.53;;
29500;SDS011;16450;50.288;10.966;2022-09-09T17:03:13;1.63;;;0.73;;
29500;SDS011;16450;50.288;10.966;2022-09-09T17:06:14;2.37;;;1.00;;
29500;SDS011;16450;50.288;10.966;2022-09-09T17:09:15;1.33;;;0.60;;
29500;SDS011;16450;50.288;10.966;2022-09-09T17:12:17;1.20;;;0.70;;
29500;SDS011;16450;50.288;10.966;2022-09-09T17:15:17;1.97;;;0.73;;
29500;SDS011;16450;50.288;10.966;2022-09-09T17:18:18;1.67;;;0.73;;
29500;SDS011;16450;50.288;10.966;2022-09-09T17:21:22;2.07;;;0.63;;
29500;SDS011;16450;50.288;10.966;2022-09-09T17:24:25;2.37;;;1.20;;
29500;SDS011;16450;50.288;10.966;2022-09-09T17:27:27;2.27;;;1.00;;
29500;SDS011;16450;50.288;10.966;2022-09-09T17:30:27;3.07;;;1.00;;
29500;SDS011;16450;50.288;10.966;2022-09-09T17:33:31;2.50;;;0.90;;
29500;SDS011;16450;50.288;10.966;2022-09-09T17:36:33;2.93;;;1.10;;
29500;SDS011;16450;50.288;10.966;2022-09-09T17:39:34;2.80;;;0.93;;
29500;SDS011;16450;50.288;10.966;2022-09-09T17:42:35;3.60;;;0.90;;
29500;SDS011;16450;50.288;10.966;2022-09-09T17:45:36;3.73;;;1.03;;
29500;SDS011;16450;50.288;10.966;2022-09-09T17:48:37;1.17;;;0.90;;
29500;SDS011;16450;50.288;10.966;2022-09-09T17:51:38;2.30;;;0.80;;
29500;SDS011;16450;50.288;10.966;2022-09-09T17:54:41;2.87;;;0.80;;
29500;SDS011;16450;50.288;10.966;2022-09-09T17:57:41;2.17;;;0.87;;
29500;SDS011;16450;50.288;10.966;2022-09-09T18:00:45;2.13;;;0.63;;
29500;SDS011;16450;50.288;10.966;2022-09-09T18:03:46;2.47;;;0.70;;
29500;SDS011;16450;50.288;10.966;2022-09-09T18:06:49;1.43;;;0.70;;
29500;SDS011;16450;50.288;10.966;2022-09-09T18:09:51;1.47;;;0.70;;
29500;SDS011;16450;50.288;10.966;2022-09-09T18:12:51;3.50;;;1.80;;
29500;SDS011;16450;50.288;10.966;2022-09-09T18:15:52;4.53;;;1.40;;
29500;SDS011;16450;50.288;10.966;2022-09-09T18:18:54;4.87;;;1.00;;
29500;SDS011;16450;50.288;10.966;2022-09-09T18:21:57;1.80;;;0.87;;
29500;SDS011;16450;50.288;10.966;2022-09-09T18:24:58;2.37;;;0.80;;
29500;SDS011;16450;50.288;10.966;2022-09-09T18:27:58;5.20;;;1.10;;
29500;SDS011;16450;50.288;10.966;2022-09-09T18:30:59;3.30;;;1.43;;
29500;SDS011;16450;50.288;10.966;2022-09-09T18:34:00;2.03;;;1.33;;
29500;SDS011;16450;50.288;10.966;2022-09-09T18:37:02;4.57;;;1.53;;
29500;SDS011;16450;50.288;10.966;2022-09-09T18:40:03;3.43;;;1.60;;
29500;SDS011;16450;50.288;10.966;2022-09-09T18:43:04;5.37;;;2.00;;
29500;SDS011;16450;50.288;10.966;2022-09-09T18:46:07;3.47;;;1.90;;
29500;SDS011;16450;50.288;10.966;2022-09-09T18:49:08;4.80;;;2.00;;
29500;SDS011;16450;50.288;10.966;2022-09-09T18:52:10;5.67;;;2.33;;
29500;SDS011;16450;50.288;10.966;2022-09-09T18:55:11;4.23;;;2.30;;
29500;SDS011;16450;50.288;10.966;2022-09-09T18:58:12;3.37;;;2.10;;
29500;SDS011;16450;50.288;10.966;2022-09-09T19:01:13;4.67;;;1.93;;
29500;SDS011;16450;50.288;10.966;2022-09-09T19:04:15;3.33;;;2.00;;
29500;SDS011;16450;50.288;10.966;2022-09-09T19:07:16;4.90;;;1.70;;
29500;SDS011;16450;50.288;10.966;2022-09-09T19:10:17;3.47;;;1.70;;
29500;SDS011;16450;50.288;10.966;2022-09-09T19:13:18;3.97;;;1.70;;
29500;SDS011;16450;50.288;10.966;2022-09-09T19:16:20;4.10;;;1.70;;
29500;SDS011;16450;50.288;10.966;2022-09-09T19:19:26;3.50;;;1.50;;
29500;SDS011;16450;50.288;10.966;2022-09-09T19:22:28;2.00;;;1.20;;
29500;SDS011;16450;50.288;10.966;2022-09-09T19:25:29;1.87;;;1.20;;
29500;SDS011;16450;50.288;10.966;2022-09-09T19:28:36;3.30;;;1.10;;
29500;SDS011;16450;50.288;10.966;2022-09-09T19:31:39;3.10;;;1.30;;
29500;SDS011;16450;50.288;10.966;2022-09-09T19:34:40;2.30;;;1.10;;
29500;SDS011;16450;50.288;10.966;2022-09-09T19:37:43;2.53;;;1.03;;
29500;SDS011;16450;50.288;10.966;2022-09-09T19:40:44;2.47;;;1.27;;
29500;SDS011;16450;50.288;10.966;2022-09-09T19:43:44;3.73;;;1.40;;
29500;SDS011;16450;50.288;10.966;2022-09-09T19:46:45;3.77;;;1.90;;
29500;SDS011;16450;50.288;10.966;2022-09-09T19:49:46;5.90;;;3.10;;
29500;SDS011;16450;50.288;10.966;2022-09-09T19:52:47;8.70;;;4.30;;
29500;SDS011;16450;50.288;10.966;2022-09-09T19:55:48;7.13;;;3.30;;
29500;SDS011;16450;50.288;10.966;2022-09-09T19:58:52;6.63;;;2.73;;